createdAt,value
2017-12-31T02:04:13.786Z,100072.81
2017-12-31T02:06:44.763Z,100081.48
2017-12-31T02:09:15.403Z,100083.20
2017-12-31T02:11:46.794Z,100075.35
2017-12-31T02:14:15.693Z,100075.10
2017-12-31T02:16:45.463Z,100072.75
2017-12-31T02:19:17.907Z,100072.68
2017-12-31T02:21:46.221Z,100067.13
2017-12-31T02:24:19.071Z,100073.88
2017-12-31T02:26:49.304Z,100066.72
2017-12-31T02:29:19.616Z,100065.36
2017-12-31T02:31:54.114Z,100067.13
2017-12-31T02:34:30.866Z,100068.63
2017-12-31T02:37:00.886Z,100056.23
2017-12-31T02:39:31.587Z,100057.58
2017-12-31T02:42:01.504Z,100055.98
2017-12-31T02:44:32.165Z,100052.02
2017-12-31T02:47:14.154Z,100041.47
2017-12-31T02:49:45.168Z,100043.07
2017-12-31T02:52:14.616Z,100038.20
2017-12-31T02:54:45.393Z,100046.64
2017-12-31T02:57:15.108Z,100060.86
2017-12-31T02:59:47.944Z,100057.72
2017-12-31T03:02:16.957Z,100053.11
2017-12-31T03:04:46.395Z,100041.98
2017-12-31T03:07:15.279Z,100039.94
2017-12-31T03:09:48.482Z,100027.15
2017-12-31T03:12:31.214Z,100017.54
2017-12-31T03:15:04.233Z,100010.96
2017-12-31T03:17:32.337Z,100008.89
2017-12-31T03:20:02.275Z,100010.33
2017-12-31T03:25:26.290Z,100007.72
2017-12-31T03:27:57.867Z,100003.50
2017-12-31T03:30:29.261Z,100008.99
2017-12-31T03:33:00.576Z,100017.34
2017-12-31T03:35:31.855Z,100006.84
2017-12-31T03:38:05.624Z,99999.15
2017-12-31T03:40:37.505Z,99996.94
2017-12-31T03:43:05.503Z,99993.35
2017-12-31T03:45:38.899Z,99993.28
2017-12-31T03:48:09.228Z,99993.20
2017-12-31T03:50:43.630Z,99992.56
2017-12-31T03:53:14.338Z,99981.84
2017-12-31T03:55:48.250Z,99975.95
2017-12-31T03:58:18.826Z,99971.75
2017-12-31T04:00:52.934Z,99977.89
2017-12-31T04:03:26.877Z,99969.46
2017-12-31T04:05:57.426Z,99970.25
2017-12-31T04:08:30.491Z,99965.88
2017-12-31T04:11:00.960Z,99958.18
2017-12-31T04:13:31.960Z,99942.37
2017-12-31T04:16:02.697Z,99945.53
2017-12-31T04:21:27.725Z,99938.38
2017-12-31T04:24:04.580Z,99937.19
2017-12-31T04:26:39.307Z,99945.63
2017-12-31T04:29:10.575Z,99950.38
2017-12-31T04:31:42.930Z,99939.73
2017-12-31T04:34:19.315Z,99937.19
2017-12-31T04:36:51.064Z,99939.41
2017-12-31T04:39:23.751Z,99940.75
2017-12-31T09:33:57.112Z,99680.66
2017-12-31T09:39:04.254Z,99679.59
2017-12-31T09:41:35.471Z,99692.53
2017-12-31T09:44:10.480Z,99699.60
2017-12-31T09:46:42.720Z,99694.32
2017-12-31T09:51:52.061Z,99685.22
2017-12-31T09:57:23.230Z,99685.69
2017-12-31T10:00:06.239Z,99684.70
2017-12-31T10:02:40.296Z,99676.44
2017-12-31T10:05:13.495Z,99673.35
2017-12-31T10:07:45.423Z,99677.39
2017-12-31T10:20:30.678Z,99655.89
2017-12-31T10:23:06.961Z,99645.75
2017-12-31T10:25:42.878Z,99641.67
2017-12-31T10:28:17.149Z,99643.33
2017-12-31T10:30:50.836Z,99646.94
2017-12-31T10:33:21.733Z,99649.47
2017-12-31T10:35:56.718Z,99649.77
2017-12-31T10:38:28.688Z,99647.22
2017-12-31T10:41:01.296Z,99640.14
2017-12-31T10:43:29.775Z,99644.94
2017-12-31T10:46:22.793Z,99641.45
2017-12-31T10:48:53.616Z,99661.27
2017-12-31T10:51:24.399Z,99649.07
2017-12-31T10:53:52.262Z,99638.78
2017-12-31T10:56:21.287Z,99639.86
2017-12-31T10:58:50.936Z,99640.44
2017-12-31T11:01:18.668Z,99632.52
2017-12-31T11:03:52.782Z,99622.03
2017-12-31T11:06:38.926Z,99625.38
2017-12-31T13:04:52.471Z,99503.91
2017-12-31T13:07:37.864Z,99507.94
2017-12-31T13:10:09.424Z,99519.77
2017-12-31T13:12:38.189Z,99517.98
2017-12-31T13:18:10.363Z,99497.09
2017-12-31T13:26:05.653Z,99483.02
2017-12-31T13:28:36.213Z,99494.36
2017-12-31T13:31:04.065Z,99485.20
2017-12-31T13:33:40.715Z,99488.92
2017-12-31T13:36:12.725Z,99483.25
2017-12-31T13:41:17.428Z,99470.11
2017-12-31T13:43:46.932Z,99474.34
2017-12-31T13:46:14.868Z,99474.30
2017-12-31T13:48:43.837Z,99474.78
2017-12-31T13:51:11.532Z,99467.77
2017-12-31T13:53:39.808Z,99470.91
2017-12-31T13:56:07.684Z,99477.65
2017-12-31T13:58:37.683Z,99476.05
2017-12-31T14:01:09.335Z,99460.83
2017-12-31T14:03:37.893Z,99471.22
2017-12-31T14:06:05.684Z,99472.30
2017-12-31T14:08:35.351Z,99469.38
2017-12-31T14:11:04.320Z,99470.86
2017-12-31T14:13:32.136Z,99472.06
2017-12-31T14:15:59.902Z,99472.95
2017-12-31T14:18:29.146Z,99485.75
2017-12-31T14:21:00.032Z,99479.45
2017-12-31T14:23:29.214Z,99469.13
2017-12-31T14:26:00.897Z,99472.97
2017-12-31T14:28:28.643Z,99469.42
2017-12-31T14:30:56.816Z,99467.59
2017-12-31T14:33:25.254Z,99462.89
2017-12-31T14:35:53.161Z,99469.48
2017-12-31T14:38:23.113Z,99472.91
2017-12-31T14:40:52.649Z,99469.67
2017-12-31T14:43:22.039Z,99479.30
2017-12-31T14:45:49.868Z,99473.50
2017-12-31T14:48:19.076Z,99481.34
2017-12-31T14:50:47.634Z,99483.05
2017-12-31T14:53:15.600Z,99475.91
2017-12-31T14:55:43.492Z,99477.45
2017-12-31T14:58:12.086Z,99475.78
2017-12-31T15:00:40.602Z,99472.27
2017-12-31T15:03:08.483Z,99480.28
2017-12-31T15:05:42.116Z,99480.27
2017-12-31T15:08:09.941Z,99481.98
2017-12-31T15:10:40.620Z,99476.97
2017-12-31T15:13:09.434Z,99479.44
2017-12-31T15:15:38.725Z,99479.44
2017-12-31T15:18:07.574Z,99482.17
2017-12-31T15:20:36.790Z,99472.30
2017-12-31T15:23:04.505Z,99475.13
2017-12-31T15:25:38.795Z,99475.31
2017-12-31T15:28:07.464Z,99480.81
2017-12-31T15:30:41.346Z,99488.20
2017-12-31T15:33:09.084Z,99488.19
2017-12-31T15:35:37.033Z,99485.95
2017-12-31T15:38:05.035Z,99483.95
2017-12-31T15:40:34.038Z,99492.25
2017-12-31T15:43:03.058Z,99491.85
2017-12-31T15:45:32.807Z,99494.97
2017-12-31T15:48:09.805Z,99503.27
2017-12-31T15:50:38.816Z,99510.69
2017-12-31T15:53:06.658Z,99501.60
2017-12-31T15:55:35.367Z,99494.22
2017-12-31T15:58:03.719Z,99494.23
2017-12-31T16:00:33.212Z,99499.95
2017-12-31T16:03:06.067Z,99501.02
2017-12-31T16:09:24.361Z,99498.08
2017-12-31T16:11:53.368Z,99503.85
2017-12-31T16:14:30.288Z,99486.16
2017-12-31T16:16:59.859Z,99499.67
2017-12-31T16:19:32.404Z,99494.75
2017-12-31T16:22:02.307Z,99489.75
2017-12-31T16:24:32.606Z,99483.56
2017-12-31T16:27:05.308Z,99489.04
2017-12-31T16:29:44.654Z,99490.11
2017-12-31T16:38:18.259Z,99483.39
2017-12-31T16:41:01.613Z,99481.38
2017-12-31T16:43:39.907Z,99470.94
2017-12-31T16:48:49.110Z,99470.12
2017-12-31T16:51:29.086Z,99465.41
2017-12-31T16:56:44.639Z,99458.28
2017-12-31T17:05:13.205Z,99449.33
2017-12-31T17:07:49.423Z,99461.54
2017-12-31T17:10:22.178Z,99459.95
2017-12-31T17:12:50.321Z,99464.25
2017-12-31T17:15:19.874Z,99442.67
2017-12-31T17:17:54.044Z,99438.23
2017-12-31T17:23:13.312Z,99435.83
2017-12-31T17:25:44.668Z,99440.77
2017-12-31T17:28:15.401Z,99430.50
2017-12-31T17:30:43.182Z,99430.67
2017-12-31T17:33:11.753Z,99437.16
2017-12-31T17:35:41.855Z,99441.08
2017-12-31T17:38:09.639Z,99441.72
2017-12-31T17:40:46.549Z,99423.92
2017-12-31T17:43:14.290Z,99435.41
2017-12-31T17:45:42.740Z,99426.75
2017-12-31T17:48:13.019Z,99433.36
2017-12-31T17:50:44.711Z,99429.98
2017-12-31T17:53:14.133Z,99438.45
2017-12-31T17:55:50.901Z,99437.65
2017-12-31T17:58:32.865Z,99441.52
2017-12-31T18:01:09.438Z,99432.80
2017-12-31T18:03:52.612Z,99419.86
2017-12-31T18:06:23.882Z,99420.27
2017-12-31T18:08:54.612Z,99418.67
2017-12-31T18:11:22.367Z,99410.89
2017-12-31T18:13:50.124Z,99415.19
2017-12-31T18:16:21.572Z,99411.01
2017-12-31T18:18:54.331Z,99406.95
2017-12-31T18:21:25.763Z,99395.44
2017-12-31T18:23:59.852Z,99395.73
2017-12-31T18:26:29.363Z,99404.41
2017-12-31T18:28:59.724Z,99406.52
2017-12-31T18:31:29.066Z,99401.38
2017-12-31T18:34:04.754Z,99402.50
2017-12-31T18:36:34.911Z,99414.47
2017-12-31T18:39:04.287Z,99411.81
2017-12-31T18:41:33.379Z,99410.34
2017-12-31T19:17:36.727Z,99406.18
2017-12-31T20:30:32.014Z,99348.44
2017-12-31T20:33:02.246Z,99345.70
2017-12-31T20:35:30.857Z,99353.41
2017-12-31T20:52:15.714Z,99332.66
2017-12-31T21:00:55.598Z,99329.89
2017-12-31T21:03:42.943Z,99331.62
2017-12-31T21:06:35.158Z,99321.14
2017-12-31T21:10:52.143Z,99319.86
2017-12-31T21:38:28.551Z,99319.29
2017-12-31T21:41:03.448Z,99313.48
2017-12-31T21:43:33.829Z,99308.30
2017-12-31T21:46:05.491Z,99311.48
2017-12-31T21:48:36.692Z,99311.13
2017-12-31T21:51:05.596Z,99313.67
2017-12-31T21:56:31.681Z,99329.25
2017-12-31T22:04:37.604Z,99358.25
2017-12-31T22:07:14.332Z,99364.54
2017-12-31T22:09:42.148Z,99358.80
2017-12-31T22:12:09.968Z,99362.07
2017-12-31T22:14:39.594Z,99368.63
2017-12-31T22:26:29.532Z,99391.89
2017-12-31T22:31:49.922Z,99392.63
2017-12-31T22:34:30.106Z,99398.87
2017-12-31T22:37:05.679Z,99405.50
2017-12-31T22:39:44.084Z,99397.56
2017-12-31T22:42:12.099Z,99391.23
2017-12-31T22:44:42.974Z,99379.00
2017-12-31T22:47:11.933Z,99384.34
2017-12-31T22:49:44.863Z,99382.98
2017-12-31T22:52:18.235Z,99381.57
2017-12-31T22:57:19.514Z,99377.34
2017-12-31T22:59:51.715Z,99372.51
2017-12-31T23:02:19.697Z,99372.77
2017-12-31T23:04:56.714Z,99371.02
2017-12-31T23:07:29.553Z,99374.43
2017-12-31T23:10:05.286Z,99381.86
2017-12-31T23:12:35.917Z,99375.27
2017-12-31T23:21:11.536Z,99378.36
2017-12-31T23:23:44.486Z,99365.97
2017-12-31T23:26:13.313Z,99377.11
2017-12-31T23:28:41.112Z,99387.30
2017-12-31T23:31:08.804Z,99384.46
2017-12-31T23:33:37.197Z,99377.90
2017-12-31T23:36:08.687Z,99382.77
2017-12-31T23:38:40.430Z,99374.92
2017-12-31T23:41:10.018Z,99359.02
2017-12-31T23:43:42.079Z,99353.41
2017-12-31T23:46:11.067Z,99348.88
2017-12-31T23:48:47.686Z,99341.46
2017-12-31T23:53:51.393Z,99330.63
